sensor_id;sensor_type;location;lat;lon;timestamp;P1;durP1;ratioP1;P2;durP2;ratioP2
8435;SDS011;4255;48.730;9.156;2022-12-20T00:00:15;18.13;;;12.43;;
8435;SDS011;4255;48.730;9.156;2022-12-20T00:02:41;18.63;;;13.67;;
8435;SDS011;4255;48.730;9.156;2022-12-20T00:05:07;23.47;;;16.10;;
8435;SDS011;4255;48.730;9.156;2022-12-20T00:07:33;31.92;;;19.17;;
8435;SDS011;4255;48.730;9.156;2022-12-20T00:09:58;30.40;;;18.93;;
8435;SDS011;4255;48.730;9.156;2022-12-20T00:12:24;28.23;;;20.43;;
8435;SDS011;4255;48.730;9.156;2022-12-20T00:14:50;30.53;;;19.07;;
8435;SDS011;4255;48.730;9.156;2022-12-20T00:17:15;37.03;;;22.93;;
8435;SDS011;4255;48.730;9.156;2022-12-20T00:19:42;32.20;;;21.00;;
8435;SDS011;4255;48.730;9.156;2022-12-20T00:22:08;43.55;;;22.60;;
8435;SDS011;4255;48.730;9.156;2022-12-20T00:24:34;34.57;;;19.20;;
8435;SDS011;4255;48.730;9.156;2022-12-20T00:27:00;32.10;;;22.00;;
8435;SDS011;4255;48.730;9.156;2022-12-20T00:29:25;38.93;;;23.17;;
8435;SDS011;4255;48.730;9.156;2022-12-20T00:31:51;36.80;;;24.53;;
8435;SDS011;4255;48.730;9.156;2022-12-20T00:34:16;40.43;;;26.00;;
8435;SDS011;4255;48.730;9.156;2022-12-20T00:36:42;36.40;;;23.70;;
8435;SDS011;4255;48.730;9.156;2022-12-20T00:39:08;43.07;;;24.37;;
8435;SDS011;4255;48.730;9.156;2022-12-20T00:41:33;31.93;;;22.23;;
8435;SDS011;4255;48.730;9.156;2022-12-20T00:44:00;41.90;;;27.40;;
8435;SDS011;4255;48.730;9.156;2022-12-20T00:46:27;36.90;;;23.90;;
8435;SDS011;4255;48.730;9.156;2022-12-20T00:48:53;43.85;;;25.65;;
8435;SDS011;4255;48.730;9.156;2022-12-20T00:51:21;35.78;;;24.08;;
8435;SDS011;4255;48.730;9.156;2022-12-20T00:53:48;48.70;;;29.58;;
8435;SDS011;4255;48.730;9.156;2022-12-20T00:56:14;43.20;;;26.10;;
8435;SDS011;4255;48.730;9.156;2022-12-20T00:58:41;35.27;;;23.83;;
8435;SDS011;4255;48.730;9.156;2022-12-20T01:01:14;43.40;;;28.23;;
8435;SDS011;4255;48.730;9.156;2022-12-20T01:03:43;41.88;;;24.63;;
8435;SDS011;4255;48.730;9.156;2022-12-20T01:06:09;41.93;;;27.80;;
8435;SDS011;4255;48.730;9.156;2022-12-20T01:08:35;43.58;;;26.85;;
8435;SDS011;4255;48.730;9.156;2022-12-20T01:13:36;42.08;;;26.70;;
8435;SDS011;4255;48.730;9.156;2022-12-20T01:19:09;42.42;;;25.73;;
8435;SDS011;4255;48.730;9.156;2022-12-20T01:21:37;41.63;;;29.30;;
8435;SDS011;4255;48.730;9.156;2022-12-20T01:24:11;41.60;;;25.42;;
8435;SDS011;4255;48.730;9.156;2022-12-20T01:26:39;42.45;;;27.55;;
8435;SDS011;4255;48.730;9.156;2022-12-20T01:29:05;45.63;;;28.37;;
8435;SDS011;4255;48.730;9.156;2022-12-20T01:31:31;44.40;;;26.53;;
8435;SDS011;4255;48.730;9.156;2022-12-20T01:33:57;49.97;;;28.50;;
8435;SDS011;4255;48.730;9.156;2022-12-20T01:36:24;44.03;;;29.85;;
8435;SDS011;4255;48.730;9.156;2022-12-20T01:38:55;51.15;;;31.30;;
8435;SDS011;4255;48.730;9.156;2022-12-20T01:41:22;43.08;;;28.45;;
8435;SDS011;4255;48.730;9.156;2022-12-20T01:46:15;44.85;;;28.08;;
8435;SDS011;4255;48.730;9.156;2022-12-20T01:48:42;44.33;;;27.77;;
8435;SDS011;4255;48.730;9.156;2022-12-20T01:51:12;46.15;;;29.83;;
8435;SDS011;4255;48.730;9.156;2022-12-20T01:53:38;45.90;;;28.63;;
8435;SDS011;4255;48.730;9.156;2022-12-20T01:56:04;44.40;;;28.38;;
8435;SDS011;4255;48.730;9.156;2022-12-20T01:58:32;49.00;;;30.20;;
8435;SDS011;4255;48.730;9.156;2022-12-20T02:01:01;49.67;;;30.35;;
8435;SDS011;4255;48.730;9.156;2022-12-20T02:03:26;43.40;;;28.90;;
8435;SDS011;4255;48.730;9.156;2022-12-20T02:05:55;48.42;;;30.23;;
8435;SDS011;4255;48.730;9.156;2022-12-20T02:08:21;47.53;;;30.83;;
8435;SDS011;4255;48.730;9.156;2022-12-20T02:13:40;47.42;;;29.15;;
8435;SDS011;4255;48.730;9.156;2022-12-20T02:16:10;49.33;;;31.58;;
8435;SDS011;4255;48.730;9.156;2022-12-20T02:18:42;41.92;;;28.23;;
8435;SDS011;4255;48.730;9.156;2022-12-20T02:21:32;43.20;;;29.40;;
8435;SDS011;4255;48.730;9.156;2022-12-20T02:32:27;42.78;;;27.83;;
8435;SDS011;4255;48.730;9.156;2022-12-20T02:34:59;43.00;;;25.73;;
8435;SDS011;4255;48.730;9.156;2022-12-20T02:37:26;46.95;;;29.60;;
8435;SDS011;4255;48.730;9.156;2022-12-20T02:39:52;42.50;;;27.10;;
8435;SDS011;4255;48.730;9.156;2022-12-20T02:42:19;42.60;;;27.47;;
8435;SDS011;4255;48.730;9.156;2022-12-20T02:44:49;42.22;;;27.85;;
8435;SDS011;4255;48.730;9.156;2022-12-20T02:50:20;44.78;;;28.05;;
8435;SDS011;4255;48.730;9.156;2022-12-20T02:52:52;42.30;;;24.63;;
8435;SDS011;4255;48.730;9.156;2022-12-20T02:55:19;38.13;;;26.17;;
8435;SDS011;4255;48.730;9.156;2022-12-20T02:58:00;40.83;;;27.98;;
8435;SDS011;4255;48.730;9.156;2022-12-20T03:00:31;40.45;;;27.50;;
8435;SDS011;4255;48.730;9.156;2022-12-20T03:03:01;37.28;;;24.50;;
8435;SDS011;4255;48.730;9.156;2022-12-20T03:05:48;40.70;;;24.13;;
8435;SDS011;4255;48.730;9.156;2022-12-20T03:08:16;33.72;;;24.48;;
8435;SDS011;4255;48.730;9.156;2022-12-20T03:10:42;39.70;;;23.50;;
8435;SDS011;4255;48.730;9.156;2022-12-20T03:13:08;33.10;;;22.53;;
8435;SDS011;4255;48.730;9.156;2022-12-20T03:15:34;36.53;;;22.10;;
8435;SDS011;4255;48.730;9.156;2022-12-20T03:18:00;31.97;;;19.03;;
8435;SDS011;4255;48.730;9.156;2022-12-20T03:20:26;34.20;;;19.85;;
8435;SDS011;4255;48.730;9.156;2022-12-20T03:22:52;27.98;;;18.95;;
8435;SDS011;4255;48.730;9.156;2022-12-20T03:25:18;29.93;;;19.97;;
8435;SDS011;4255;48.730;9.156;2022-12-20T03:27:44;25.13;;;19.02;;
8435;SDS011;4255;48.730;9.156;2022-12-20T03:30:10;23.83;;;17.43;;
8435;SDS011;4255;48.730;9.156;2022-12-20T03:32:36;26.00;;;18.67;;
8435;SDS011;4255;48.730;9.156;2022-12-20T03:35:02;32.60;;;22.23;;
8435;SDS011;4255;48.730;9.156;2022-12-20T03:37:28;32.40;;;22.30;;
8435;SDS011;4255;48.730;9.156;2022-12-20T03:39:54;32.93;;;22.80;;
8435;SDS011;4255;48.730;9.156;2022-12-20T03:42:19;35.17;;;23.83;;
8435;SDS011;4255;48.730;9.156;2022-12-20T03:44:45;30.93;;;23.27;;
8435;SDS011;4255;48.730;9.156;2022-12-20T03:47:11;26.17;;;18.10;;
8435;SDS011;4255;48.730;9.156;2022-12-20T03:49:37;29.40;;;20.60;;
8435;SDS011;4255;48.730;9.156;2022-12-20T03:52:02;29.80;;;20.27;;
8435;SDS011;4255;48.730;9.156;2022-12-20T03:54:28;33.17;;;20.37;;
8435;SDS011;4255;48.730;9.156;2022-12-20T03:56:54;30.70;;;20.17;;
8435;SDS011;4255;48.730;9.156;2022-12-20T03:59:19;34.10;;;20.97;;
8435;SDS011;4255;48.730;9.156;2022-12-20T04:01:45;33.90;;;21.80;;
8435;SDS011;4255;48.730;9.156;2022-12-20T04:04:12;31.20;;;20.77;;
8435;SDS011;4255;48.730;9.156;2022-12-20T04:06:38;25.23;;;19.20;;
8435;SDS011;4255;48.730;9.156;2022-12-20T04:09:04;29.37;;;20.03;;
8435;SDS011;4255;48.730;9.156;2022-12-20T04:11:29;31.80;;;19.83;;
8435;SDS011;4255;48.730;9.156;2022-12-20T04:13:55;33.57;;;18.40;;
8435;SDS011;4255;48.730;9.156;2022-12-20T04:16:22;26.03;;;17.17;;
8435;SDS011;4255;48.730;9.156;2022-12-20T04:18:49;27.95;;;18.08;;
8435;SDS011;4255;48.730;9.156;2022-12-20T04:21:14;29.43;;;18.40;;
8435;SDS011;4255;48.730;9.156;2022-12-20T04:23:45;27.90;;;17.15;;
8435;SDS011;4255;48.730;9.156;2022-12-20T04:26:11;27.87;;;18.53;;
8435;SDS011;4255;48.730;9.156;2022-12-20T04:28:37;23.90;;;18.08;;
8435;SDS011;4255;48.730;9.156;2022-12-20T04:31:03;29.10;;;19.20;;
8435;SDS011;4255;48.730;9.156;2022-12-20T04:33:29;23.48;;;15.82;;
8435;SDS011;4255;48.730;9.156;2022-12-20T04:35:55;25.13;;;15.27;;
8435;SDS011;4255;48.730;9.156;2022-12-20T04:38:21;22.70;;;14.67;;
8435;SDS011;4255;48.730;9.156;2022-12-20T04:40:51;23.70;;;15.73;;
8435;SDS011;4255;48.730;9.156;2022-12-20T04:43:18;22.30;;;13.07;;
8435;SDS011;4255;48.730;9.156;2022-12-20T04:45:46;22.60;;;15.57;;
8435;SDS011;4255;48.730;9.156;2022-12-20T04:48:12;23.90;;;14.57;;
8435;SDS011;4255;48.730;9.156;2022-12-20T04:50:38;24.80;;;15.60;;
8435;SDS011;4255;48.730;9.156;2022-12-20T04:53:04;25.73;;;16.53;;
8435;SDS011;4255;48.730;9.156;2022-12-20T04:55:48;21.30;;;14.30;;
8435;SDS011;4255;48.730;9.156;2022-12-20T04:58:14;25.17;;;15.23;;
8435;SDS011;4255;48.730;9.156;2022-12-20T05:00:40;23.90;;;16.40;;
8435;SDS011;4255;48.730;9.156;2022-12-20T05:03:06;24.33;;;15.57;;
8435;SDS011;4255;48.730;9.156;2022-12-20T05:05:32;21.97;;;16.67;;
8435;SDS011;4255;48.730;9.156;2022-12-20T05:07:57;26.23;;;15.60;;
8435;SDS011;4255;48.730;9.156;2022-12-20T05:10:23;20.47;;;13.07;;
8435;SDS011;4255;48.730;9.156;2022-12-20T05:12:49;21.63;;;15.15;;
8435;SDS011;4255;48.730;9.156;2022-12-20T05:15:15;18.13;;;13.10;;
8435;SDS011;4255;48.730;9.156;2022-12-20T05:17:41;23.00;;;14.83;;
8435;SDS011;4255;48.730;9.156;2022-12-20T05:20:07;20.50;;;15.13;;
8435;SDS011;4255;48.730;9.156;2022-12-20T05:22:33;21.17;;;14.57;;
8435;SDS011;4255;48.730;9.156;2022-12-20T05:25:17;20.02;;;12.80;;
8435;SDS011;4255;48.730;9.156;2022-12-20T05:28:01;16.33;;;12.80;;
8435;SDS011;4255;48.730;9.156;2022-12-20T05:30:27;11.40;;;10.17;;
8435;SDS011;4255;48.730;9.156;2022-12-20T05:32:52;13.33;;;11.17;;
8435;SDS011;4255;48.730;9.156;2022-12-20T05:35:18;13.17;;;10.10;;
8435;SDS011;4255;48.730;9.156;2022-12-20T05:37:44;13.27;;;10.37;;
8435;SDS011;4255;48.730;9.156;2022-12-20T05:40:10;13.60;;;10.57;;
8435;SDS011;4255;48.730;9.156;2022-12-20T05:42:35;14.73;;;10.90;;
8435;SDS011;4255;48.730;9.156;2022-12-20T05:45:01;12.50;;;10.00;;
8435;SDS011;4255;48.730;9.156;2022-12-20T05:47:28;11.82;;;9.32;;
8435;SDS011;4255;48.730;9.156;2022-12-20T05:49:57;11.18;;;8.40;;
8435;SDS011;4255;48.730;9.156;2022-12-20T05:52:27;10.27;;;9.00;;
8435;SDS011;4255;48.730;9.156;2022-12-20T05:54:53;17.10;;;9.52;;
8435;SDS011;4255;48.730;9.156;2022-12-20T05:57:19;18.77;;;9.60;;
8435;SDS011;4255;48.730;9.156;2022-12-20T05:59:45;39.23;;;19.70;;
8435;SDS011;4255;48.730;9.156;2022-12-20T06:02:10;19.13;;;14.50;;
8435;SDS011;4255;48.730;9.156;2022-12-20T06:04:36;11.90;;;10.67;;
8435;SDS011;4255;48.730;9.156;2022-12-20T06:07:02;14.23;;;9.50;;
8435;SDS011;4255;48.730;9.156;2022-12-20T06:09:29;13.10;;;9.38;;
8435;SDS011;4255;48.730;9.156;2022-12-20T06:11:55;14.80;;;10.15;;
8435;SDS011;4255;48.730;9.156;2022-12-20T06:14:21;15.70;;;9.88;;
8435;SDS011;4255;48.730;9.156;2022-12-20T06:16:47;11.77;;;9.40;;
8435;SDS011;4255;48.730;9.156;2022-12-20T06:19:12;13.00;;;11.27;;
8435;SDS011;4255;48.730;9.156;2022-12-20T06:21:38;10.87;;;9.53;;
8435;SDS011;4255;48.730;9.156;2022-12-20T06:24:04;14.20;;;9.33;;
8435;SDS011;4255;48.730;9.156;2022-12-20T06:26:30;21.63;;;11.60;;
8435;SDS011;4255;48.730;9.156;2022-12-20T06:29:00;12.70;;;10.68;;
8435;SDS011;4255;48.730;9.156;2022-12-20T06:31:26;10.38;;;9.10;;
8435;SDS011;4255;48.730;9.156;2022-12-20T06:33:52;9.27;;;8.27;;
8435;SDS011;4255;48.730;9.156;2022-12-20T06:36:18;12.45;;;8.68;;
8435;SDS011;4255;48.730;9.156;2022-12-20T06:38:44;13.17;;;7.40;;
8435;SDS011;4255;48.730;9.156;2022-12-20T06:41:09;11.67;;;8.33;;
8435;SDS011;4255;48.730;9.156;2022-12-20T06:43:35;10.20;;;8.43;;
8435;SDS011;4255;48.730;9.156;2022-12-20T06:46:01;13.67;;;8.87;;
8435;SDS011;4255;48.730;9.156;2022-12-20T06:48:26;11.03;;;9.90;;
8435;SDS011;4255;48.730;9.156;2022-12-20T06:50:52;13.13;;;10.60;;
8435;SDS011;4255;48.730;9.156;2022-12-20T06:53:17;14.70;;;12.80;;
8435;SDS011;4255;48.730;9.156;2022-12-20T06:55:45;17.97;;;13.43;;
8435;SDS011;4255;48.730;9.156;2022-12-20T06:58:14;13.10;;;11.15;;
8435;SDS011;4255;48.730;9.156;2022-12-20T07:00:40;11.40;;;9.82;;
8435;SDS011;4255;48.730;9.156;2022-12-20T07:03:06;13.30;;;9.30;;
8435;SDS011;4255;48.730;9.156;2022-12-20T07:05:31;14.03;;;9.17;;
8435;SDS011;4255;48.730;9.156;2022-12-20T07:07:57;15.43;;;10.53;;
8435;SDS011;4255;48.730;9.156;2022-12-20T07:10:22;16.10;;;10.23;;
8435;SDS011;4255;48.730;9.156;2022-12-20T07:12:48;11.10;;;9.30;;
8435;SDS011;4255;48.730;9.156;2022-12-20T07:15:14;13.20;;;8.20;;
8435;SDS011;4255;48.730;9.156;2022-12-20T07:17:40;9.32;;;8.20;;
8435;SDS011;4255;48.730;9.156;2022-12-20T07:20:06;10.73;;;8.40;;
8435;SDS011;4255;48.730;9.156;2022-12-20T07:22:32;10.77;;;7.38;;
8435;SDS011;4255;48.730;9.156;2022-12-20T07:24:58;9.68;;;8.50;;
8435;SDS011;4255;48.730;9.156;2022-12-20T07:27:24;14.20;;;10.47;;
8435;SDS011;4255;48.730;9.156;2022-12-20T07:29:50;13.33;;;9.30;;
8435;SDS011;4255;48.730;9.156;2022-12-20T07:32:16;10.70;;;8.90;;
8435;SDS011;4255;48.730;9.156;2022-12-20T07:34:41;11.77;;;7.37;;
8435;SDS011;4255;48.730;9.156;2022-12-20T07:37:07;11.60;;;8.10;;
8435;SDS011;4255;48.730;9.156;2022-12-20T07:39:33;11.63;;;8.77;;
8435;SDS011;4255;48.730;9.156;2022-12-20T07:41:58;10.05;;;7.80;;
8435;SDS011;4255;48.730;9.156;2022-12-20T07:44:24;11.70;;;8.00;;
8435;SDS011;4255;48.730;9.156;2022-12-20T07:46:50;9.90;;;8.17;;
8435;SDS011;4255;48.730;9.156;2022-12-20T07:49:15;9.50;;;6.80;;
8435;SDS011;4255;48.730;9.156;2022-12-20T07:51:45;8.60;;;6.77;;
8435;SDS011;4255;48.730;9.156;2022-12-20T07:54:15;6.85;;;5.90;;
8435;SDS011;4255;48.730;9.156;2022-12-20T07:56:43;11.30;;;7.35;;
8435;SDS011;4255;48.730;9.156;2022-12-20T07:59:12;5.75;;;5.25;;
8435;SDS011;4255;48.730;9.156;2022-12-20T08:01:40;7.38;;;6.20;;
8435;SDS011;4255;48.730;9.156;2022-12-20T08:04:09;7.50;;;5.32;;
8435;SDS011;4255;48.730;9.156;2022-12-20T08:06:38;7.30;;;6.00;;
8435;SDS011;4255;48.730;9.156;2022-12-20T08:09:06;7.18;;;6.30;;
8435;SDS011;4255;48.730;9.156;2022-12-20T08:11:33;10.13;;;6.07;;
8435;SDS011;4255;48.730;9.156;2022-12-20T08:14:01;8.65;;;7.10;;
8435;SDS011;4255;48.730;9.156;2022-12-20T08:16:28;8.00;;;5.50;;
8435;SDS011;4255;48.730;9.156;2022-12-20T08:18:55;10.02;;;7.05;;
8435;SDS011;4255;48.730;9.156;2022-12-20T08:21:20;9.77;;;6.63;;
8435;SDS011;4255;48.730;9.156;2022-12-20T08:23:46;7.70;;;5.97;;
8435;SDS011;4255;48.730;9.156;2022-12-20T08:26:11;10.17;;;6.67;;
8435;SDS011;4255;48.730;9.156;2022-12-20T08:28:37;8.60;;;7.03;;
8435;SDS011;4255;48.730;9.156;2022-12-20T08:31:04;8.23;;;6.90;;
8435;SDS011;4255;48.730;9.156;2022-12-20T08:33:32;6.95;;;6.15;;
8435;SDS011;4255;48.730;9.156;2022-12-20T08:35:59;11.15;;;6.70;;
8435;SDS011;4255;48.730;9.156;2022-12-20T08:38:27;10.68;;;7.03;;
8435;SDS011;4255;48.730;9.156;2022-12-20T08:40:55;8.43;;;7.50;;
8435;SDS011;4255;48.730;9.156;2022-12-20T08:43:25;9.55;;;7.43;;
8435;SDS011;4255;48.730;9.156;2022-12-20T08:45:51;16.73;;;9.93;;
8435;SDS011;4255;48.730;9.156;2022-12-20T08:48:18;8.55;;;7.65;;
8435;SDS011;4255;48.730;9.156;2022-12-20T08:50:44;12.40;;;7.57;;
8435;SDS011;4255;48.730;9.156;2022-12-20T08:53:09;14.13;;;7.37;;
8435;SDS011;4255;48.730;9.156;2022-12-20T08:55:35;10.63;;;7.13;;
8435;SDS011;4255;48.730;9.156;2022-12-20T08:58:00;8.70;;;7.60;;
8435;SDS011;4255;48.730;9.156;2022-12-20T09:00:26;9.20;;;7.20;;
8435;SDS011;4255;48.730;9.156;2022-12-20T09:02:52;9.77;;;8.20;;
8435;SDS011;4255;48.730;9.156;2022-12-20T09:05:18;10.60;;;8.48;;
8435;SDS011;4255;48.730;9.156;2022-12-20T09:07:44;8.83;;;7.93;;
8435;SDS011;4255;48.730;9.156;2022-12-20T09:10:10;9.57;;;7.63;;
8435;SDS011;4255;48.730;9.156;2022-12-20T09:12:36;11.85;;;8.68;;
8435;SDS011;4255;48.730;9.156;2022-12-20T09:15:03;9.82;;;8.05;;
8435;SDS011;4255;48.730;9.156;2022-12-20T09:17:29;11.30;;;8.18;;
8435;SDS011;4255;48.730;9.156;2022-12-20T09:19:55;13.67;;;8.00;;
8435;SDS011;4255;48.730;9.156;2022-12-20T09:22:20;8.80;;;7.50;;
8435;SDS011;4255;48.730;9.156;2022-12-20T09:24:46;11.23;;;7.50;;
8435;SDS011;4255;48.730;9.156;2022-12-20T09:27:11;10.33;;;7.17;;
8435;SDS011;4255;48.730;9.156;2022-12-20T09:29:37;9.97;;;6.33;;
8435;SDS011;4255;48.730;9.156;2022-12-20T09:32:03;11.90;;;6.73;;
8435;SDS011;4255;48.730;9.156;2022-12-20T09:34:28;11.97;;;8.53;;
8435;SDS011;4255;48.730;9.156;2022-12-20T09:36:54;8.77;;;6.73;;
8435;SDS011;4255;48.730;9.156;2022-12-20T09:39:19;7.70;;;6.47;;
8435;SDS011;4255;48.730;9.156;2022-12-20T09:41:45;7.43;;;6.30;;
8435;SDS011;4255;48.730;9.156;2022-12-20T09:44:13;7.10;;;6.00;;
8435;SDS011;4255;48.730;9.156;2022-12-20T09:46:52;7.72;;;6.78;;
8435;SDS011;4255;48.730;9.156;2022-12-20T09:49:20;7.03;;;6.38;;
8435;SDS011;4255;48.730;9.156;2022-12-20T09:52:06;8.75;;;6.93;;
8435;SDS011;4255;48.730;9.156;2022-12-20T10:00:44;7.25;;;6.10;;
8435;SDS011;4255;48.730;9.156;2022-12-20T10:03:12;8.70;;;6.20;;
8435;SDS011;4255;48.730;9.156;2022-12-20T10:05:54;10.80;;;6.85;;
8435;SDS011;4255;48.730;9.156;2022-12-20T10:08:36;16.85;;;7.07;;
8435;SDS011;4255;48.730;9.156;2022-12-20T10:16:30;11.13;;;7.80;;
8435;SDS011;4255;48.730;9.156;2022-12-20T10:22:05;6.60;;;5.95;;
8435;SDS011;4255;48.730;9.156;2022-12-20T10:24:43;7.03;;;6.28;;
8435;SDS011;4255;48.730;9.156;2022-12-20T10:27:19;7.85;;;6.00;;
8435;SDS011;4255;48.730;9.156;2022-12-20T10:29:45;6.05;;;5.45;;
8435;SDS011;4255;48.730;9.156;2022-12-20T10:32:22;10.25;;;6.68;;
8435;SDS011;4255;48.730;9.156;2022-12-20T10:34:56;5.75;;;5.15;;
8435;SDS011;4255;48.730;9.156;2022-12-20T10:40:28;13.48;;;9.20;;
8435;SDS011;4255;48.730;9.156;2022-12-20T10:42:56;14.13;;;9.05;;
8435;SDS011;4255;48.730;9.156;2022-12-20T10:47:58;14.25;;;9.65;;
8435;SDS011;4255;48.730;9.156;2022-12-20T10:50:25;9.65;;;6.53;;
8435;SDS011;4255;48.730;9.156;2022-12-20T10:55:48;14.07;;;7.82;;
8435;SDS011;4255;48.730;9.156;2022-12-20T10:58:21;15.10;;;8.52;;
8435;SDS011;4255;48.730;9.156;2022-12-20T11:01:11;12.85;;;8.00;;
8435;SDS011;4255;48.730;9.156;2022-12-20T11:09:19;11.67;;;6.10;;
8435;SDS011;4255;48.730;9.156;2022-12-20T11:14:26;8.32;;;6.35;;
8435;SDS011;4255;48.730;9.156;2022-12-20T11:16:52;8.85;;;5.60;;
8435;SDS011;4255;48.730;9.156;2022-12-20T11:22:02;5.97;;;5.35;;
8435;SDS011;4255;48.730;9.156;2022-12-20T11:27:40;9.15;;;6.22;;
8435;SDS011;4255;48.730;9.156;2022-12-20T11:30:19;7.80;;;5.57;;
8435;SDS011;4255;48.730;9.156;2022-12-20T11:33:01;9.30;;;6.88;;
8435;SDS011;4255;48.730;9.156;2022-12-20T11:35:36;13.38;;;6.13;;
8435;SDS011;4255;48.730;9.156;2022-12-20T11:46:31;7.10;;;5.55;;
8435;SDS011;4255;48.730;9.156;2022-12-20T11:51:59;9.40;;;6.88;;
8435;SDS011;4255;48.730;9.156;2022-12-20T11:54:28;12.55;;;8.30;;
8435;SDS011;4255;48.730;9.156;2022-12-20T11:57:23;10.20;;;7.00;;
8435;SDS011;4255;48.730;9.156;2022-12-20T11:59:56;22.45;;;13.93;;
8435;SDS011;4255;48.730;9.156;2022-12-20T12:02:26;24.77;;;17.02;;
8435;SDS011;4255;48.730;9.156;2022-12-20T12:05:06;31.45;;;20.10;;
8435;SDS011;4255;48.730;9.156;2022-12-20T12:07:43;20.42;;;13.70;;
8435;SDS011;4255;48.730;9.156;2022-12-20T12:10:19;25.10;;;16.85;;
8435;SDS011;4255;48.730;9.156;2022-12-20T12:12:52;19.90;;;12.90;;
8435;SDS011;4255;48.730;9.156;2022-12-20T12:17:51;25.08;;;17.95;;
8435;SDS011;4255;48.730;9.156;2022-12-20T12:25:37;11.00;;;8.27;;
8435;SDS011;4255;48.730;9.156;2022-12-20T12:28:03;10.97;;;9.10;;
8435;SDS011;4255;48.730;9.156;2022-12-20T12:30:34;9.77;;;6.68;;
8435;SDS011;4255;48.730;9.156;2022-12-20T12:33:05;12.73;;;7.38;;
8435;SDS011;4255;48.730;9.156;2022-12-20T12:35:56;8.30;;;7.13;;
8435;SDS011;4255;48.730;9.156;2022-12-20T12:47:43;8.65;;;6.82;;
8435;SDS011;4255;48.730;9.156;2022-12-20T12:50:26;5.88;;;5.32;;
8435;SDS011;4255;48.730;9.156;2022-12-20T12:52:55;6.05;;;5.18;;
8435;SDS011;4255;48.730;9.156;2022-12-20T12:55:46;7.75;;;5.35;;
8435;SDS011;4255;48.730;9.156;2022-12-20T13:00:52;4.90;;;4.45;;
8435;SDS011;4255;48.730;9.156;2022-12-20T13:03:36;9.15;;;5.50;;
8435;SDS011;4255;48.730;9.156;2022-12-20T13:09:10;8.85;;;6.65;;
8435;SDS011;4255;48.730;9.156;2022-12-20T13:11:36;7.85;;;6.10;;
8435;SDS011;4255;48.730;9.156;2022-12-20T13:16:50;7.78;;;5.93;;
8435;SDS011;4255;48.730;9.156;2022-12-20T13:19:36;15.23;;;5.45;;
8435;SDS011;4255;48.730;9.156;2022-12-20T13:51:06;6.65;;;5.35;;
8435;SDS011;4255;48.730;9.156;2022-12-20T13:53:33;5.78;;;4.65;;
8435;SDS011;4255;48.730;9.156;2022-12-20T13:56:02;8.48;;;5.53;;
8435;SDS011;4255;48.730;9.156;2022-12-20T13:59:06;7.53;;;4.38;;
8435;SDS011;4255;48.730;9.156;2022-12-20T14:01:45;8.00;;;5.72;;
8435;SDS011;4255;48.730;9.156;2022-12-20T14:04:14;8.18;;;5.00;;
8435;SDS011;4255;48.730;9.156;2022-12-20T14:06:41;6.43;;;5.15;;
8435;SDS011;4255;48.730;9.156;2022-12-20T14:09:26;4.93;;;4.43;;
8435;SDS011;4255;48.730;9.156;2022-12-20T14:12:01;6.50;;;4.80;;
8435;SDS011;4255;48.730;9.156;2022-12-20T14:14:28;9.00;;;5.30;;
8435;SDS011;4255;48.730;9.156;2022-12-20T14:16:54;7.77;;;5.60;;
8435;SDS011;4255;48.730;9.156;2022-12-20T14:19:19;6.70;;;5.30;;
8435;SDS011;4255;48.730;9.156;2022-12-20T14:21:45;6.30;;;4.90;;
8435;SDS011;4255;48.730;9.156;2022-12-20T14:24:16;6.77;;;6.07;;
8435;SDS011;4255;48.730;9.156;2022-12-20T14:26:44;7.05;;;5.68;;
8435;SDS011;4255;48.730;9.156;2022-12-20T14:29:15;11.45;;;6.25;;
8435;SDS011;4255;48.730;9.156;2022-12-20T14:31:48;7.47;;;5.25;;
8435;SDS011;4255;48.730;9.156;2022-12-20T14:34:17;9.35;;;5.53;;
8435;SDS011;4255;48.730;9.156;2022-12-20T14:36:54;7.65;;;5.55;;
8435;SDS011;4255;48.730;9.156;2022-12-20T14:42:34;10.00;;;7.07;;
8435;SDS011;4255;48.730;9.156;2022-12-20T14:45:03;10.68;;;5.90;;
8435;SDS011;4255;48.730;9.156;2022-12-20T14:47:35;7.25;;;6.00;;
8435;SDS011;4255;48.730;9.156;2022-12-20T14:50:05;7.50;;;5.75;;
8435;SDS011;4255;48.730;9.156;2022-12-20T14:52:42;7.63;;;6.55;;
8435;SDS011;4255;48.730;9.156;2022-12-20T14:57:47;5.38;;;4.88;;
8435;SDS011;4255;48.730;9.156;2022-12-20T15:00:29;8.25;;;5.85;;
8435;SDS011;4255;48.730;9.156;2022-12-20T15:13:46;8.57;;;7.22;;
8435;SDS011;4255;48.730;9.156;2022-12-20T15:16:17;7.25;;;6.30;;
8435;SDS011;4255;48.730;9.156;2022-12-20T15:18:45;6.60;;;5.40;;
8435;SDS011;4255;48.730;9.156;2022-12-20T15:21:13;8.73;;;6.55;;
8435;SDS011;4255;48.730;9.156;2022-12-20T15:23:41;8.50;;;6.20;;
8435;SDS011;4255;48.730;9.156;2022-12-20T15:26:13;6.45;;;5.85;;
8435;SDS011;4255;48.730;9.156;2022-12-20T15:28:40;5.38;;;4.85;;
8435;SDS011;4255;48.730;9.156;2022-12-20T15:31:08;10.87;;;5.97;;
8435;SDS011;4255;48.730;9.156;2022-12-20T15:33:39;8.85;;;5.95;;
8435;SDS011;4255;48.730;9.156;2022-12-20T15:36:06;7.93;;;5.75;;
8435;SDS011;4255;48.730;9.156;2022-12-20T15:38:39;7.88;;;5.65;;
8435;SDS011;4255;48.730;9.156;2022-12-20T15:41:07;8.83;;;6.13;;
8435;SDS011;4255;48.730;9.156;2022-12-20T15:43:53;6.13;;;5.40;;
8435;SDS011;4255;48.730;9.156;2022-12-20T15:46:21;8.77;;;5.20;;
8435;SDS011;4255;48.730;9.156;2022-12-20T15:48:47;6.65;;;5.25;;
8435;SDS011;4255;48.730;9.156;2022-12-20T15:51:32;10.30;;;6.67;;
8435;SDS011;4255;48.730;9.156;2022-12-20T15:54:00;8.68;;;6.05;;
8435;SDS011;4255;48.730;9.156;2022-12-20T15:56:28;7.47;;;5.28;;
8435;SDS011;4255;48.730;9.156;2022-12-20T15:58:53;6.47;;;5.73;;
8435;SDS011;4255;48.730;9.156;2022-12-20T16:01:30;8.53;;;6.77;;
8435;SDS011;4255;48.730;9.156;2022-12-20T16:04:00;12.23;;;8.65;;
8435;SDS011;4255;48.730;9.156;2022-12-20T16:06:26;11.47;;;8.83;;
8435;SDS011;4255;48.730;9.156;2022-12-20T16:08:52;10.63;;;8.90;;
8435;SDS011;4255;48.730;9.156;2022-12-20T16:11:22;10.03;;;8.30;;
8435;SDS011;4255;48.730;9.156;2022-12-20T16:13:49;11.85;;;7.95;;
8435;SDS011;4255;48.730;9.156;2022-12-20T16:16:16;13.75;;;8.55;;
8435;SDS011;4255;48.730;9.156;2022-12-20T16:18:43;13.10;;;8.07;;
8435;SDS011;4255;48.730;9.156;2022-12-20T16:21:19;14.40;;;8.57;;
8435;SDS011;4255;48.730;9.156;2022-12-20T16:23:47;14.20;;;8.70;;
8435;SDS011;4255;48.730;9.156;2022-12-20T16:26:14;15.00;;;9.30;;
8435;SDS011;4255;48.730;9.156;2022-12-20T16:28:41;11.57;;;7.45;;
8435;SDS011;4255;48.730;9.156;2022-12-20T16:31:23;7.22;;;6.53;;
8435;SDS011;4255;48.730;9.156;2022-12-20T16:33:52;7.55;;;6.45;;
8435;SDS011;4255;48.730;9.156;2022-12-20T16:36:19;8.77;;;6.53;;
8435;SDS011;4255;48.730;9.156;2022-12-20T16:38:46;5.68;;;5.07;;
8435;SDS011;4255;48.730;9.156;2022-12-20T16:41:23;6.30;;;5.70;;
8435;SDS011;4255;48.730;9.156;2022-12-20T16:43:51;8.52;;;6.05;;
8435;SDS011;4255;48.730;9.156;2022-12-20T16:46:19;8.85;;;6.45;;
8435;SDS011;4255;48.730;9.156;2022-12-20T16:48:46;15.38;;;7.55;;
8435;SDS011;4255;48.730;9.156;2022-12-20T16:53:59;9.05;;;6.05;;
8435;SDS011;4255;48.730;9.156;2022-12-20T16:56:29;8.70;;;6.25;;
8435;SDS011;4255;48.730;9.156;2022-12-20T16:58:55;6.10;;;5.50;;
8435;SDS011;4255;48.730;9.156;2022-12-20T17:01:23;12.32;;;5.90;;
8435;SDS011;4255;48.730;9.156;2022-12-20T17:03:54;6.63;;;5.97;;
8435;SDS011;4255;48.730;9.156;2022-12-20T17:06:19;6.87;;;5.80;;
8435;SDS011;4255;48.730;9.156;2022-12-20T17:08:46;8.33;;;5.90;;
8435;SDS011;4255;48.730;9.156;2022-12-20T17:11:16;6.07;;;4.80;;
8435;SDS011;4255;48.730;9.156;2022-12-20T17:13:49;7.78;;;4.97;;
8435;SDS011;4255;48.730;9.156;2022-12-20T17:16:16;8.50;;;5.60;;
8435;SDS011;4255;48.730;9.156;2022-12-20T17:18:43;6.85;;;6.15;;
8435;SDS011;4255;48.730;9.156;2022-12-20T17:21:21;7.55;;;5.55;;
8435;SDS011;4255;48.730;9.156;2022-12-20T17:23:48;9.45;;;6.15;;
8435;SDS011;4255;48.730;9.156;2022-12-20T17:26:15;8.63;;;6.38;;
8435;SDS011;4255;48.730;9.156;2022-12-20T17:28:44;9.43;;;5.18;;
8435;SDS011;4255;48.730;9.156;2022-12-20T17:31:22;6.45;;;5.53;;
8435;SDS011;4255;48.730;9.156;2022-12-20T17:33:53;7.32;;;5.22;;